createdAt,value
2023-01-30T14:54:42.835Z,997.38
2023-01-30T14:55:42.162Z,997.5
2023-01-30T14:56:42.195Z,997.5
2023-01-30T14:57:42.212Z,997.47
2023-01-30T14:58:42.274Z,997.51
2023-01-30T14:59:42.211Z,997.54
2023-01-30T15:00:42.229Z,997.52
2023-01-30T15:01:42.213Z,997.43
2023-01-30T15:02:42.237Z,997.46
2023-01-30T15:03:42.195Z,997.49
2023-01-30T15:04:42.216Z,997.45
2023-01-30T15:05:42.230Z,997.45
2023-01-30T15:06:42.210Z,997.5
2023-01-30T15:07:42.236Z,997.52
2023-01-30T15:08:42.243Z,997.35
2023-01-30T15:09:42.430Z,997.4
2023-01-30T15:10:42.266Z,997.45
2023-01-30T15:11:42.434Z,997.44
2023-01-30T15:12:42.235Z,997.44
2023-01-30T15:13:42.241Z,997.52
2023-01-30T15:14:42.242Z,997.48
2023-01-30T15:15:42.248Z,997.48
2023-01-30T15:16:42.306Z,997.49
2023-01-30T15:17:42.258Z,997.54
2023-01-30T15:18:42.264Z,997.58
2023-01-30T15:19:42.265Z,997.58
2023-01-30T15:20:42.457Z,997.49
2023-01-30T15:21:42.277Z,997.52
2023-01-30T15:22:42.282Z,997.5
2023-01-30T15:23:42.285Z,997.53
2023-01-30T15:24:42.296Z,997.51
2023-01-30T15:25:42.286Z,997.55
2023-01-30T15:26:42.474Z,997.57
2023-01-30T15:27:42.295Z,997.49
2023-01-30T15:28:42.305Z,997.33
2023-01-30T15:29:42.306Z,997.55
2023-01-30T15:30:42.325Z,997.49
2023-01-30T15:31:42.319Z,997.53
2023-01-30T15:32:42.473Z,997.56
2023-01-30T15:33:42.319Z,997.6
2023-01-30T15:34:42.428Z,997.62
2023-01-30T15:35:43.023Z,997.64
2023-01-30T15:36:42.330Z,997.63
2023-01-30T15:37:42.337Z,997.65
2023-01-30T15:38:42.341Z,997.61
2023-01-30T15:39:42.346Z,997.71
2023-01-30T15:40:42.350Z,997.64
2023-01-30T15:41:43.379Z,997.69
2023-01-30T15:42:42.606Z,997.69
2023-01-30T15:43:42.366Z,997.8
2023-01-30T15:44:43.019Z,997.66
2023-01-30T15:45:42.863Z,997.76
2023-01-30T15:46:42.365Z,997.75
2023-01-30T15:47:42.383Z,997.74
2023-01-30T15:48:42.374Z,997.72
2023-01-30T15:49:42.388Z,997.7
2023-01-30T15:50:42.381Z,997.67
2023-01-30T15:51:42.398Z,997.68
2023-01-30T15:52:42.413Z,997.72
2023-01-30T15:53:42.422Z,997.73
2023-01-30T15:54:43.469Z,997.74
2023-01-30T15:55:42.405Z,997.77
2023-01-30T15:56:42.411Z,997.79
2023-01-30T15:57:42.410Z,997.71
2023-01-30T15:58:42.449Z,997.77
2023-01-30T15:59:42.422Z,997.69
2023-01-30T16:00:42.415Z,997.76
2023-01-30T16:01:42.425Z,997.78
2023-01-30T16:02:42.542Z,997.75
2023-01-30T16:03:42.438Z,997.82
2023-01-30T16:04:42.432Z,997.76
2023-01-30T16:05:42.435Z,997.76
2023-01-30T16:06:42.442Z,997.82
2023-01-30T16:07:42.444Z,997.82
2023-01-30T16:08:42.446Z,997.86
2023-01-30T16:09:45.501Z,997.92
2023-01-30T16:10:42.452Z,997.91
2023-01-30T16:11:42.463Z,997.95
2023-01-30T16:12:42.460Z,997.98
2023-01-30T16:13:42.471Z,998.03
2023-01-30T16:14:43.093Z,998.08
2023-01-30T16:15:42.487Z,998.09
2023-01-30T16:16:42.560Z,998.12
2023-01-30T16:17:42.480Z,998.17
2023-01-30T16:18:42.490Z,998.23
2023-01-30T16:19:42.486Z,998.27
2023-01-30T16:20:48.655Z,998.21
